createdAt,value
2017-12-30T00:00:58.398Z,39.5
2017-12-30T00:01:59.736Z,39.5
2017-12-30T00:03:01.351Z,39.6
2017-12-30T00:04:02.967Z,39.6
2017-12-30T00:05:04.282Z,39.6
2017-12-30T00:06:05.675Z,39.4
2017-12-30T00:07:07.568Z,39.4
2017-12-30T00:08:09.185Z,39.1
2017-12-30T00:09:10.806Z,39.6
2017-12-30T00:10:12.424Z,39.8
2017-12-30T00:11:14.044Z,39.7
2017-12-30T00:12:15.662Z,39.7
2017-12-30T00:13:17.256Z,39.7
2017-12-30T00:14:18.583Z,39.6
2017-12-30T00:15:19.921Z,39.7
2017-12-30T00:16:21.261Z,39.5
2017-12-30T00:17:22.900Z,39.5
2017-12-30T00:18:24.472Z,39.5
2017-12-30T00:19:25.789Z,39.5
2017-12-30T00:20:27.126Z,39.7
2017-12-30T00:21:28.743Z,39.4
2017-12-30T00:22:30.380Z,39.5
2017-12-30T00:23:31.701Z,39.5
2017-12-30T00:24:33.597Z,40
2017-12-30T00:25:34.939Z,39.4
2017-12-30T00:26:36.833Z,39.5
2017-12-30T00:27:38.454Z,39.5
2017-12-30T00:28:40.053Z,39.9
2017-12-30T00:29:41.670Z,39.9
2017-12-30T00:30:43.314Z,39.8
2017-12-30T00:31:44.630Z,39.5
2017-12-30T00:32:45.947Z,39.8
2017-12-30T00:33:47.563Z,39.8
2017-12-30T00:34:49.458Z,39.6
2017-12-30T00:35:51.074Z,39.8
2017-12-30T00:36:52.980Z,39.9
2017-12-30T00:37:54.597Z,39.9
2017-12-30T00:38:55.939Z,39.5
2017-12-30T00:39:57.256Z,39.8
2017-12-30T00:40:58.597Z,39.6
2017-12-30T00:41:59.949Z,39.8
2017-12-30T00:43:01.598Z,39.5
2017-12-30T00:44:02.905Z,40
2017-12-30T00:45:03.942Z,39.5
2017-12-30T00:46:05.560Z,39.6
2017-12-30T00:47:07.179Z,40
2017-12-30T00:48:08.240Z,39.7
2017-12-30T00:49:09.560Z,39.8
2017-12-30T00:50:10.881Z,39.5
2017-12-30T00:51:11.926Z,39.8
2017-12-30T00:52:12.962Z,39.6
2017-12-30T00:53:14.581Z,39.8
2017-12-30T00:54:16.196Z,39.7
2017-12-30T00:55:17.533Z,39.4
2017-12-30T00:56:19.496Z,39.5
2017-12-30T00:57:21.392Z,39.5
2017-12-30T00:58:22.711Z,39.8
2017-12-30T00:59:24.034Z,39.5
2017-12-30T01:00:25.631Z,39.4
2017-12-30T01:03:27.464Z,39.5
2017-12-30T01:04:29.349Z,39.6
2017-12-30T01:05:30.964Z,39.8
2017-12-30T01:06:32.583Z,39.5
2017-12-30T01:07:33.930Z,40.1
2017-12-30T01:08:35.582Z,39.5
2017-12-30T01:09:36.920Z,39.7
2017-12-30T01:10:37.985Z,40.1
2017-12-30T01:11:39.603Z,39.8
2017-12-30T01:12:41.219Z,39.5
2017-12-30T01:13:42.560Z,39.5
2017-12-30T01:14:44.476Z,39.7
2017-12-30T01:15:45.815Z,39.7
2017-12-30T01:16:47.442Z,39.9
2017-12-30T01:17:49.053Z,39.6
2017-12-30T01:18:50.950Z,39.8
2017-12-30T01:19:52.292Z,40.1
2017-12-30T01:20:53.608Z,39.8
2017-12-30T01:21:54.947Z,40
2017-12-30T01:22:56.562Z,39.8
2017-12-30T01:23:58.180Z,39.9
2017-12-30T01:24:59.775Z,39.9
2017-12-30T01:26:01.390Z,39.6
2017-12-30T01:27:02.708Z,39.9
2017-12-30T01:28:04.602Z,40
2017-12-30T01:29:06.498Z,40
2017-12-30T01:30:08.115Z,39.9
2017-12-30T01:31:09.712Z,39.7
2017-12-30T01:32:11.330Z,40
2017-12-30T01:33:13.223Z,39.8
2017-12-30T01:34:14.557Z,39.8
2017-12-30T01:35:15.609Z,39.8
2017-12-30T01:36:17.504Z,39.9
2017-12-30T01:37:18.827Z,40
2017-12-30T01:38:20.419Z,39.8
2017-12-30T01:39:22.315Z,39.8
2017-12-30T01:40:23.655Z,39.9
2017-12-30T01:41:25.272Z,39.8
2017-12-30T01:42:26.619Z,39.9
2017-12-30T01:43:28.522Z,39.8
2017-12-30T01:44:30.416Z,39.8
2017-12-30T01:45:32.013Z,39.9
2017-12-30T01:46:33.354Z,39.7
2017-12-30T01:47:34.973Z,39.7
2017-12-30T01:48:50.259Z,40
2017-12-30T01:49:51.605Z,39.8
2017-12-30T01:50:53.500Z,39.8
2017-12-30T01:51:55.120Z,39.8
2017-12-30T01:52:56.738Z,39.8
2017-12-30T01:53:58.078Z,39.7
2017-12-30T01:54:59.116Z,39.8
2017-12-30T01:56:01.023Z,39.9
2017-12-30T01:57:02.918Z,39.8
2017-12-30T01:58:03.682Z,39.7
2017-12-30T01:59:05.286Z,39.9
2017-12-30T02:00:06.897Z,39.8
2017-12-30T02:01:07.942Z,39.8
2017-12-30T02:02:09.539Z,39.7
2017-12-30T02:03:11.157Z,39.8
2017-12-30T02:04:13.093Z,39.8
2017-12-30T02:05:14.434Z,39.9
2017-12-30T02:06:16.090Z,39.9
2017-12-30T02:07:17.685Z,39.9
2017-12-30T02:08:19.585Z,40
2017-12-30T02:09:21.481Z,39.8
2017-12-30T02:10:23.378Z,39.8
2017-12-30T02:11:24.995Z,39.9
2017-12-30T02:12:26.340Z,39.8
2017-12-30T02:13:27.402Z,39.9
2017-12-30T02:14:29.022Z,39.7
2017-12-30T02:15:30.342Z,39.8
2017-12-30T02:16:31.962Z,39.9
2017-12-30T02:17:33.583Z,39.9
2017-12-30T02:18:35.481Z,39.8
2017-12-30T02:19:37.100Z,39.8
2017-12-30T02:20:38.763Z,39.9
2017-12-30T02:21:40.101Z,39.8
2017-12-30T02:22:41.441Z,39.8
2017-12-30T02:23:42.759Z,39.9
2017-12-30T02:24:44.375Z,39.9
2017-12-30T02:25:46.272Z,39.9
2017-12-30T02:26:47.890Z,39.8
2017-12-30T02:27:48.931Z,39.8
2017-12-30T02:28:50.832Z,39.9
2017-12-30T02:29:52.177Z,39.7
2017-12-30T02:30:54.072Z,39.7
2017-12-30T02:31:55.395Z,39.7
2017-12-30T02:32:56.716Z,39.8
2017-12-30T02:33:58.612Z,39.8
2017-12-30T02:35:00.507Z,39.7
2017-12-30T02:36:02.124Z,39.9
2017-12-30T02:37:04.019Z,39.6
2017-12-30T02:38:05.914Z,39.8
2017-12-30T02:39:07.513Z,39.7
2017-12-30T02:40:09.143Z,39.7
2017-12-30T02:41:10.764Z,39.9
2017-12-30T02:42:12.081Z,39.7
2017-12-30T02:43:13.700Z,39.9
2017-12-30T02:44:15.317Z,39.7
2017-12-30T02:45:16.938Z,39.7
2017-12-30T02:46:18.559Z,39.9
2017-12-30T02:47:20.176Z,39.8
2017-12-30T02:48:22.074Z,39.6
2017-12-30T02:49:23.395Z,39.6
2017-12-30T02:50:25.291Z,39.7
2017-12-30T02:51:27.190Z,39.7
2017-12-30T02:52:29.112Z,39.8
2017-12-30T02:53:30.730Z,39.9
2017-12-30T02:54:32.349Z,39.9
2017-12-30T02:55:33.947Z,39.7
2017-12-30T02:56:35.548Z,39.7
2017-12-30T02:57:37.146Z,39.9
2017-12-30T02:58:39.040Z,39.8
2017-12-30T02:59:40.935Z,39.7
2017-12-30T03:00:42.532Z,39.8
2017-12-30T03:01:44.427Z,39.8
2017-12-30T03:02:46.323Z,39.9
2017-12-30T03:03:47.665Z,39.8
2017-12-30T03:04:49.280Z,39.8
2017-12-30T03:05:50.602Z,39.8
2017-12-30T03:06:52.221Z,39.8
2017-12-30T03:07:53.839Z,39.7
2017-12-30T03:08:55.457Z,39.7
2017-12-30T03:09:57.080Z,39.6
2017-12-30T03:10:58.696Z,40
2017-12-30T03:12:00.591Z,39.8
2017-12-30T03:13:01.909Z,39.7
2017-12-30T03:14:03.530Z,39.6
2017-12-30T03:15:05.152Z,39.7
2017-12-30T03:16:06.471Z,39.9
2017-12-30T03:17:08.087Z,39.8
2017-12-30T03:18:09.130Z,39.7
2017-12-30T03:19:10.448Z,39.6
2017-12-30T03:20:12.344Z,39.6
2017-12-30T03:21:14.238Z,39.6
2017-12-30T03:22:15.588Z,39.7
2017-12-30T03:23:16.630Z,39.8
2017-12-30T03:24:18.529Z,39.6
2017-12-30T03:25:20.168Z,39.9
2017-12-30T03:26:22.063Z,39.7
2017-12-30T03:27:23.975Z,39.8
2017-12-30T03:28:25.574Z,39.7
2017-12-30T03:29:26.913Z,39.9
2017-12-30T03:30:28.256Z,39.7
2017-12-30T03:31:29.876Z,39.7
2017-12-30T03:32:31.770Z,39.7
2017-12-30T03:33:33.089Z,39.6
2017-12-30T03:34:34.689Z,39.7
2017-12-30T03:35:36.007Z,39.6
2017-12-30T03:36:37.905Z,39.8
2017-12-30T03:37:39.244Z,39.6
2017-12-30T03:38:40.581Z,39.7
2017-12-30T03:39:42.490Z,39.6
2017-12-30T03:40:44.375Z,39.8
2017-12-30T03:41:45.976Z,39.7
2017-12-30T03:42:47.874Z,39.9
2017-12-30T03:43:49.494Z,39.7
2017-12-30T03:44:50.532Z,39.6
2017-12-30T03:45:52.139Z,39.6
2017-12-30T03:46:53.757Z,39.7
2017-12-30T03:47:55.376Z,39.7
2017-12-30T03:48:56.715Z,39.8
2017-12-30T03:49:58.610Z,39.8
2017-12-30T03:50:59.657Z,39.7
2017-12-30T03:52:00.977Z,39.7
2017-12-30T03:53:02.597Z,39.7
2017-12-30T03:54:04.218Z,39.8
2017-12-30T03:55:05.565Z,39.7
2017-12-30T03:56:07.190Z,39.7
2017-12-30T03:57:08.808Z,39.7
2017-12-30T03:58:10.701Z,39.6
2017-12-30T03:59:12.321Z,39.7
2017-12-30T04:00:14.222Z,39.6
2017-12-30T04:01:16.157Z,39.8
2017-12-30T04:02:17.202Z,39.7
2017-12-30T04:03:18.241Z,39.7
2017-12-30T04:04:19.859Z,39.6
2017-12-30T04:05:21.755Z,39.7
2017-12-30T04:06:23.077Z,39.8
2017-12-30T04:07:24.970Z,39.7
2017-12-30T04:08:26.586Z,39.6
2017-12-30T04:09:28.484Z,39.7
2017-12-30T04:10:30.082Z,39.8
2017-12-30T04:11:31.401Z,39.7
2017-12-30T04:12:33.021Z,40.2
2017-12-30T04:13:34.640Z,39.7
2017-12-30T04:14:35.959Z,40.2
2017-12-30T04:15:37.281Z,39.7
2017-12-30T04:16:38.902Z,39.7
2017-12-30T04:17:40.241Z,39.6
2017-12-30T04:18:41.583Z,39.8
2017-12-30T04:19:43.202Z,39.8
2017-12-30T04:20:45.097Z,39.8
2017-12-30T04:21:46.994Z,39.7
2017-12-30T04:22:48.334Z,39.7
2017-12-30T04:23:49.937Z,39.8
2017-12-30T04:24:51.552Z,39.8
2017-12-30T04:25:53.156Z,39.5
2017-12-30T04:26:54.493Z,39.8
2017-12-30T04:27:55.557Z,39.9
2017-12-30T04:28:57.457Z,39.7
2017-12-30T04:29:59.054Z,39.7
2017-12-30T04:31:00.951Z,39.8
2017-12-30T04:32:02.271Z,39.6
2017-12-30T04:33:03.868Z,39.8
2017-12-30T04:34:05.487Z,39.7
2017-12-30T04:35:07.109Z,39.8
2017-12-30T04:36:08.729Z,39.8
2017-12-30T04:37:10.627Z,40
2017-12-30T04:38:12.244Z,39.8
2017-12-30T04:39:13.564Z,39.8
2017-12-30T04:40:14.907Z,39.8
2017-12-30T04:41:16.528Z,39.8
2017-12-30T04:42:17.848Z,39.8
2017-12-30T04:43:19.468Z,39.9
2017-12-30T04:44:20.809Z,39.5
2017-12-30T04:45:22.704Z,39.9
2017-12-30T04:46:24.603Z,39.9
2017-12-30T04:47:26.499Z,39.6
2017-12-30T04:48:28.120Z,39.8
2017-12-30T04:49:29.737Z,39.8
2017-12-30T04:50:31.637Z,39.8
2017-12-30T04:51:32.975Z,39.6
2017-12-30T04:52:34.028Z,39.6
2017-12-30T04:53:35.343Z,39.6
2017-12-30T04:54:36.963Z,39.9
2017-12-30T04:55:38.282Z,39.8
2017-12-30T04:56:39.327Z,39.8
2017-12-30T04:57:40.943Z,40
2017-12-30T04:58:42.838Z,39.8
2017-12-30T04:59:44.733Z,39.8
2017-12-30T05:00:46.077Z,39.8
2017-12-30T05:01:47.696Z,39.8
2017-12-30T05:02:49.593Z,39.6
2017-12-30T05:03:51.489Z,39.6
2017-12-30T05:04:52.834Z,40
2017-12-30T05:05:54.458Z,39.8
2017-12-30T05:06:56.354Z,39.9
2017-12-30T05:07:57.676Z,39.5
2017-12-30T05:08:59.577Z,39.8
2017-12-30T05:10:01.175Z,39.6
2017-12-30T05:11:02.775Z,39.6
2017-12-30T05:12:03.818Z,39.6
2017-12-30T05:13:05.134Z,39.4
2017-12-30T05:14:06.756Z,39.4
2017-12-30T05:15:08.382Z,40
2017-12-30T05:16:10.275Z,40.4
2017-12-30T05:17:12.173Z,40.4
2017-12-30T05:18:13.493Z,40.3
2017-12-30T05:19:15.391Z,39.6
2017-12-30T05:20:16.714Z,39.6
2017-12-30T05:21:18.057Z,39.5
2017-12-30T05:22:19.398Z,39.9
2017-12-30T05:23:20.442Z,39.6
2017-12-30T05:24:22.338Z,40.3
2017-12-30T05:25:23.955Z,40.3
2017-12-30T05:26:25.847Z,39.9
2017-12-30T05:27:27.170Z,40
2017-12-30T05:28:28.486Z,40
2017-12-30T05:29:29.823Z,40
2017-12-30T05:30:31.441Z,40.1
2017-12-30T05:31:33.039Z,40.2
2017-12-30T05:32:34.635Z,39.8
2017-12-30T05:33:36.254Z,40.2
2017-12-30T05:34:37.871Z,40
2017-12-30T05:35:39.212Z,40
2017-12-30T05:36:41.108Z,39.8
2017-12-30T05:37:43.010Z,40.2
2017-12-30T05:38:44.908Z,40
2017-12-30T05:39:46.505Z,39.8
2017-12-30T05:40:48.123Z,39.9
2017-12-30T05:41:49.740Z,40
2017-12-30T05:42:51.636Z,40.1
2017-12-30T05:43:53.254Z,39.8
2017-12-30T05:44:54.573Z,39.8
2017-12-30T05:45:56.469Z,39.8
2017-12-30T05:46:58.088Z,39.9
2017-12-30T05:47:59.712Z,39.7
2017-12-30T05:49:01.323Z,39.6
2017-12-30T05:50:02.943Z,40
2017-12-30T05:51:04.565Z,39.4
2017-12-30T05:52:05.908Z,39.8
2017-12-30T05:53:06.671Z,39.9
2017-12-30T05:54:08.298Z,39.9
2017-12-30T05:55:09.907Z,40.1
2017-12-30T05:56:11.804Z,40
2017-12-30T05:57:13.422Z,40.2
2017-12-30T05:58:15.022Z,40.3
2017-12-30T05:59:16.915Z,40
2017-12-30T06:00:18.817Z,40
2017-12-30T06:01:19.860Z,40
2017-12-30T06:02:21.207Z,40.2
2017-12-30T06:03:22.824Z,39.9
2017-12-30T06:04:24.469Z,40.1
2017-12-30T06:05:26.352Z,40.1
2017-12-30T06:06:27.408Z,40.4
2017-12-30T06:07:29.020Z,40.1
2017-12-30T06:08:30.915Z,40.3
2017-12-30T06:09:32.542Z,40
2017-12-30T06:10:33.857Z,39.9
2017-12-30T06:11:35.753Z,40.2
2017-12-30T06:12:37.650Z,40.1
2017-12-30T06:13:38.992Z,40
2017-12-30T06:14:40.614Z,40.3
2017-12-30T06:15:42.509Z,39.9
2017-12-30T06:16:43.844Z,40.2
2017-12-30T06:17:44.917Z,40.2
2017-12-30T06:18:46.511Z,39.9
2017-12-30T06:19:48.126Z,40.2
2017-12-30T06:20:49.468Z,40
2017-12-30T06:21:50.814Z,40.1
2017-12-30T06:22:52.466Z,39.9
2017-12-30T06:23:53.804Z,39.8
2017-12-30T06:24:55.421Z,39.9
2017-12-30T06:25:57.019Z,39.9
2017-12-30T06:26:58.638Z,39.9
2017-12-30T06:28:00.538Z,40.1
2017-12-30T06:29:01.878Z,40
2017-12-30T06:30:03.218Z,40.1
2017-12-30T06:31:04.842Z,40.1
2017-12-30T06:32:06.174Z,40.2
2017-12-30T06:33:08.071Z,40.2
2017-12-30T06:34:09.687Z,39.9
2017-12-30T06:35:11.584Z,39.8
2017-12-30T06:36:13.202Z,39.9
2017-12-30T06:37:14.522Z,39.9
2017-12-30T06:38:15.862Z,39.9
2017-12-30T06:39:17.479Z,40.5
2017-12-30T06:40:18.801Z,39.9
2017-12-30T06:41:20.125Z,40.2
2017-12-30T06:42:22.019Z,40.3
2017-12-30T06:43:23.060Z,39.9
2017-12-30T06:44:24.678Z,39.9
2017-12-30T06:45:26.066Z,39.9
2017-12-30T06:46:27.683Z,39.8
2017-12-30T06:47:29.299Z,40.5
2017-12-30T06:48:30.915Z,39.9
2017-12-30T06:49:32.539Z,40.5
2017-12-30T06:50:34.438Z,39.9
2017-12-30T06:51:36.347Z,39.9
2017-12-30T06:52:37.373Z,40.5
2017-12-30T06:53:38.714Z,39.9
2017-12-30T06:54:40.309Z,40.4
2017-12-30T06:55:41.651Z,40
2017-12-30T06:56:42.993Z,40.3
2017-12-30T06:57:44.312Z,40.4
2017-12-30T06:58:45.653Z,39.8
2017-12-30T06:59:47.547Z,39.7
2017-12-30T07:00:49.169Z,40.4
2017-12-30T07:01:50.511Z,39.9
2017-12-30T07:02:51.852Z,40.5
2017-12-30T07:03:53.456Z,39.9
2017-12-30T07:04:54.795Z,39.9
2017-12-30T07:05:55.838Z,40.6
2017-12-30T07:06:57.156Z,40
2017-12-30T07:07:58.780Z,40.1
2017-12-30T07:09:00.121Z,40
2017-12-30T07:10:01.740Z,40
2017-12-30T07:11:03.635Z,40.5
2017-12-30T07:12:05.253Z,39.9
2017-12-30T07:13:06.851Z,39.8
2017-12-30T07:14:08.178Z,40.1
2017-12-30T07:15:09.503Z,39.9
2017-12-30T07:16:11.096Z,39.9
2017-12-30T07:17:12.715Z,40
2017-12-30T07:18:14.313Z,40.4
2017-12-30T07:19:15.930Z,40
2017-12-30T07:20:17.549Z,39.9
2017-12-30T07:21:19.475Z,40
2017-12-30T07:22:21.375Z,40.6
2017-12-30T07:23:22.142Z,40
2017-12-30T07:24:23.760Z,40.7
2017-12-30T07:25:25.660Z,40.6
2017-12-30T07:26:27.012Z,40.6
2017-12-30T07:27:28.632Z,40.2
2017-12-30T07:28:30.529Z,40
2017-12-30T07:29:32.146Z,40.7
2017-12-30T07:30:33.464Z,40
2017-12-30T07:31:35.085Z,40.3
2017-12-30T07:32:36.685Z,40.6
2017-12-30T07:33:38.304Z,40.3
2017-12-30T07:34:40.202Z,40.4
2017-12-30T07:35:42.099Z,40.4
2017-12-30T07:36:43.995Z,40.3
2017-12-30T07:37:45.615Z,40.4
2017-12-30T07:38:47.515Z,40.3
2017-12-30T07:39:48.555Z,40.3
2017-12-30T07:40:50.453Z,40.3
2017-12-30T07:41:52.124Z,40.3
2017-12-30T07:42:53.448Z,40.2
2017-12-30T07:43:54.512Z,40.5
2017-12-30T07:44:55.277Z,40.4
2017-12-30T07:45:56.340Z,40.2
2017-12-30T07:46:57.484Z,40.3
2017-12-30T07:47:58.827Z,40.2
2017-12-30T07:49:00.171Z,40.4
2017-12-30T07:50:01.211Z,40.3
2017-12-30T07:51:03.108Z,40.3
2017-12-30T07:52:04.734Z,40.7
2017-12-30T07:53:06.636Z,40.3
2017-12-30T07:54:08.259Z,40.1
2017-12-30T07:55:09.602Z,40.4
2017-12-30T07:56:11.224Z,40.4
2017-12-30T07:57:12.849Z,40.4
2017-12-30T07:58:14.447Z,40.4
2017-12-30T07:59:15.769Z,40.4
2017-12-30T08:00:16.810Z,40.4
2017-12-30T08:01:18.707Z,40.4
2017-12-30T08:02:20.323Z,40.4
2017-12-30T08:03:21.921Z,40.1
2017-12-30T08:04:23.244Z,40.1
2017-12-30T08:05:24.864Z,40.4
2017-12-30T08:06:25.923Z,40.1
2017-12-30T08:07:27.268Z,40.3
2017-12-30T08:08:29.162Z,40.5
2017-12-30T08:09:31.060Z,40.3
2017-12-30T08:10:32.414Z,40.3
2017-12-30T08:11:33.999Z,40.1
2017-12-30T08:12:35.904Z,40.3
2017-12-30T08:13:37.803Z,40.3
2017-12-30T08:14:39.427Z,40.2
2017-12-30T08:15:40.469Z,40.1
2017-12-30T08:16:42.075Z,40.7
2017-12-30T08:17:43.415Z,40
2017-12-30T08:18:45.036Z,40.7
2017-12-30T08:19:46.934Z,40.1
2017-12-30T08:20:48.553Z,40.2
2017-12-30T08:21:49.874Z,40.7
2017-12-30T08:22:51.476Z,40
2017-12-30T08:23:53.372Z,40.2
2017-12-30T08:24:55.266Z,40.7
2017-12-30T08:25:56.305Z,40.6
2017-12-30T08:26:58.199Z,39.9
2017-12-30T08:27:59.545Z,40
2017-12-30T08:29:01.443Z,39.9
2017-12-30T08:30:03.062Z,39.9
2017-12-30T08:31:05.044Z,40
2017-12-30T08:32:06.991Z,39.9
2017-12-30T08:33:08.890Z,40.6
2017-12-30T08:34:10.487Z,40.7
2017-12-30T08:35:11.531Z,40
2017-12-30T08:36:13.151Z,40.3
2017-12-30T08:37:14.769Z,40.5
2017-12-30T08:38:16.393Z,40
2017-12-30T08:39:17.715Z,40.2
2017-12-30T08:40:19.058Z,40.2
2017-12-30T08:41:20.403Z,40.3
2017-12-30T08:42:22.024Z,40.1
2017-12-30T08:43:23.351Z,40.1
2017-12-30T08:44:24.696Z,40.5
2017-12-30T08:45:26.295Z,40.2
2017-12-30T08:46:27.916Z,40.3
2017-12-30T08:47:29.811Z,40.1
2017-12-30T08:48:31.417Z,40.3
2017-12-30T08:49:33.020Z,40.2
2017-12-30T08:50:34.370Z,40.3
2017-12-30T08:51:35.714Z,40.7
2017-12-30T08:52:36.757Z,40.1
2017-12-30T08:53:38.359Z,40.4
2017-12-30T08:54:39.975Z,40.2
2017-12-30T08:55:41.578Z,40.1
2017-12-30T08:56:42.898Z,40.3
2017-12-30T08:57:44.520Z,40.2
2017-12-30T08:58:46.419Z,40.2
2017-12-30T08:59:48.332Z,40.2
2017-12-30T09:00:49.934Z,40.2
2017-12-30T09:01:51.535Z,40.4
2017-12-30T09:02:53.171Z,40.3
2017-12-30T09:03:54.790Z,40.2
2017-12-30T09:04:55.853Z,40.1
2017-12-30T09:05:57.196Z,40.2
2017-12-30T09:06:58.537Z,40.8
2017-12-30T09:08:00.156Z,40.5
2017-12-30T09:09:01.780Z,40.1
2017-12-30T09:10:03.101Z,40.1
2017-12-30T09:11:04.722Z,40.8
2017-12-30T09:12:06.340Z,40.4
2017-12-30T09:13:08.234Z,40.4
2017-12-30T09:14:09.857Z,40.8
2017-12-30T09:15:11.750Z,40.9
2017-12-30T09:16:13.375Z,40.5
2017-12-30T09:17:15.293Z,40.1
2017-12-30T09:18:16.895Z,40.1
2017-12-30T09:19:18.087Z,40.1
2017-12-30T09:20:19.685Z,40.1
2017-12-30T09:21:21.309Z,40.4
2017-12-30T09:22:22.626Z,40.4
2017-12-30T09:23:23.668Z,40.7
2017-12-30T09:24:25.092Z,40.1
2017-12-30T09:25:26.995Z,40.2
2017-12-30T09:26:28.610Z,40.1
2017-12-30T09:27:30.241Z,40.1
2017-12-30T09:28:31.855Z,40.6
2017-12-30T09:29:33.176Z,40.2
2017-12-30T09:30:34.793Z,40.4
2017-12-30T09:31:36.411Z,40.1
2017-12-30T09:32:37.730Z,40.2
2017-12-30T09:33:39.328Z,40.6
2017-12-30T09:34:40.649Z,40.2
2017-12-30T09:35:42.272Z,40.3
2017-12-30T09:36:43.888Z,40.3
2017-12-30T09:37:45.230Z,40.1
2017-12-30T09:38:46.825Z,40.3
2017-12-30T09:39:48.451Z,40.5
2017-12-30T09:40:50.074Z,40.1
2017-12-30T09:41:51.967Z,40.1
2017-12-30T09:42:53.863Z,40.3
2017-12-30T09:43:54.914Z,40.4
2017-12-30T09:44:56.253Z,40.7
2017-12-30T09:45:57.877Z,40.7
2017-12-30T09:46:58.917Z,40.3
2017-12-30T09:48:00.547Z,40.3
2017-12-30T09:49:02.163Z,40.7
2017-12-30T09:50:04.062Z,40.1
2017-12-30T09:51:05.962Z,40.2
2017-12-30T09:52:07.859Z,40.4
2017-12-30T09:53:09.463Z,40.4
2017-12-30T09:54:11.064Z,40.4
2017-12-30T09:55:12.661Z,40.5
2017-12-30T09:56:13.998Z,40.3
2017-12-30T09:57:15.902Z,40.7
2017-12-30T09:58:17.517Z,40.4
2017-12-30T09:59:18.865Z,40.9
2017-12-30T10:00:20.485Z,40.8
2017-12-30T10:01:22.106Z,40.5
2017-12-30T10:02:23.721Z,40.4
2017-12-30T10:03:25.621Z,40.7
2017-12-30T10:04:27.516Z,40.7
2017-12-30T10:05:29.141Z,40.6
2017-12-30T10:06:31.039Z,40.5
2017-12-30T10:07:32.087Z,40.2
2017-12-30T10:08:33.709Z,40.1
2017-12-30T10:09:35.642Z,40.1
2017-12-30T10:10:37.568Z,40.2
2017-12-30T10:11:39.165Z,40.2
2017-12-30T10:12:40.788Z,40.3
2017-12-30T10:13:42.408Z,40.5
2017-12-30T10:14:43.749Z,40.2
2017-12-30T10:15:45.369Z,40.3
2017-12-30T10:16:46.987Z,40.6
2017-12-30T10:17:48.607Z,40.5
2017-12-30T10:18:49.964Z,40.2
2017-12-30T10:19:51.625Z,40.2
2017-12-30T10:20:53.249Z,40.6
2017-12-30T10:21:54.865Z,40.4
2017-12-30T10:22:56.186Z,40.3
2017-12-30T10:23:57.523Z,40.5
2017-12-30T10:24:59.145Z,40.7
2017-12-30T10:26:00.762Z,40.1
2017-12-30T10:27:02.660Z,40.6
2017-12-30T10:28:03.706Z,40.2
2017-12-30T10:29:05.602Z,40.2
2017-12-30T10:30:06.921Z,40.5
2017-12-30T10:31:08.819Z,40.2
2017-12-30T10:32:09.882Z,40.2
2017-12-30T10:33:11.782Z,40.5
2017-12-30T10:34:12.826Z,40.1
2017-12-30T10:35:14.444Z,40.1
2017-12-30T10:36:16.341Z,40.6
2017-12-30T10:37:18.237Z,40.5
2017-12-30T10:38:19.839Z,40.8
2017-12-30T10:39:21.184Z,40.2
2017-12-30T10:40:22.532Z,40.2
2017-12-30T10:41:23.851Z,40.2
2017-12-30T10:42:25.750Z,40.2
2017-12-30T10:43:27.091Z,40.2
2017-12-30T10:44:28.415Z,40.1
2017-12-30T10:45:29.739Z,40.3
2017-12-30T10:46:31.635Z,40.2
2017-12-30T10:47:33.236Z,40.2
2017-12-30T10:48:34.574Z,40.3
2017-12-30T10:49:36.475Z,40.2
2017-12-30T10:50:37.815Z,40.2
2017-12-30T10:51:39.135Z,40.2
2017-12-30T10:52:40.757Z,40.2
2017-12-30T10:53:42.375Z,40.6
2017-12-30T10:54:43.975Z,40.2
2017-12-30T10:55:45.307Z,40.3
2017-12-30T10:56:46.926Z,40.5
2017-12-30T10:57:48.825Z,40.8
2017-12-30T10:58:50.166Z,40.2
2017-12-30T10:59:51.781Z,40.3
2017-12-30T11:00:53.107Z,40.5
2017-12-30T11:01:54.731Z,40.4
2017-12-30T11:02:56.328Z,40.5
2017-12-30T11:03:57.675Z,40.3
2017-12-30T11:04:59.024Z,41.1
2017-12-30T11:06:00.342Z,40.4
2017-12-30T11:07:01.962Z,41.1
2017-12-30T11:08:03.279Z,40.3
2017-12-30T11:09:04.920Z,40.8
2017-12-30T11:10:06.813Z,40.9
2017-12-30T11:11:08.152Z,40.7
2017-12-30T11:12:09.776Z,40.7
2017-12-30T11:13:10.846Z,40.9
2017-12-30T11:14:12.781Z,41.1
2017-12-30T11:15:14.676Z,40.5
2017-12-30T11:16:15.998Z,40.5
2017-12-30T11:17:17.593Z,41.1
2017-12-30T11:18:19.209Z,40.4
2017-12-30T11:19:21.107Z,40.5
2017-12-30T11:20:22.432Z,40.4
2017-12-30T11:21:23.752Z,40.4
2017-12-30T11:22:25.074Z,40.4
2017-12-30T11:23:26.421Z,40.4
2017-12-30T11:24:28.016Z,40.5
2017-12-30T11:25:29.944Z,40.7
2017-12-30T11:26:31.548Z,40.4
2017-12-30T11:27:32.892Z,41
2017-12-30T11:28:34.233Z,40.6
2017-12-30T11:29:35.553Z,40.6
2017-12-30T11:30:37.232Z,40.9
2017-12-30T11:31:39.128Z,40.6
2017-12-30T11:32:41.024Z,40.5
2017-12-30T11:33:42.349Z,40.7
2017-12-30T11:34:44.245Z,40.7
2017-12-30T11:35:45.863Z,40.9
2017-12-30T11:36:47.191Z,41.1
2017-12-30T11:37:47.960Z,40.6
2017-12-30T11:38:49.858Z,41
2017-12-30T11:39:51.177Z,41
2017-12-30T11:40:52.521Z,40.6
2017-12-30T11:41:54.418Z,40.6
2017-12-30T11:42:56.036Z,40.6
2017-12-30T11:43:57.380Z,40.7
2017-12-30T11:44:58.726Z,41.1
2017-12-30T11:46:00.627Z,40.9
2017-12-30T11:47:02.254Z,40.7
2017-12-30T11:48:04.154Z,40.6
2017-12-30T11:49:05.502Z,40.9
2017-12-30T11:50:06.812Z,40.9
2017-12-30T11:51:08.135Z,40.5
2017-12-30T11:52:10.051Z,40.5
2017-12-30T11:53:11.393Z,40.6
2017-12-30T11:54:13.289Z,40.4
2017-12-30T11:55:15.184Z,41.1
2017-12-30T11:56:16.529Z,40.4
2017-12-30T11:57:18.161Z,40.4
2017-12-30T11:58:20.069Z,40.6
2017-12-30T11:59:21.674Z,40.8
2017-12-30T12:00:23.273Z,41
2017-12-30T12:01:24.612Z,40.8
2017-12-30T12:02:26.517Z,40.8
2017-12-30T12:03:28.406Z,40.8
2017-12-30T12:04:30.001Z,40.9
2017-12-30T12:05:31.622Z,40.7
2017-12-30T12:06:33.244Z,40.8
2017-12-30T12:07:35.146Z,40.8
2017-12-30T12:08:36.766Z,40.6
2017-12-30T12:09:38.092Z,40.7
2017-12-30T12:10:39.705Z,40.7
2017-12-30T12:11:41.598Z,40.7
2017-12-30T12:12:43.494Z,41.1
2017-12-30T12:13:45.392Z,40.8
2017-12-30T12:14:46.734Z,40.8
2017-12-30T12:15:48.055Z,41
2017-12-30T12:16:49.401Z,41.2
2017-12-30T12:17:51.026Z,41
2017-12-30T12:18:52.915Z,40.9
2017-12-30T12:19:54.534Z,41.1
2017-12-30T12:20:55.856Z,41
2017-12-30T12:21:57.755Z,41
2017-12-30T12:22:58.796Z,41.1
2017-12-30T12:23:59.839Z,41
2017-12-30T12:25:01.465Z,41.1
2017-12-30T12:26:02.789Z,41.5
2017-12-30T12:27:04.406Z,41.1
2017-12-30T12:28:05.725Z,41.2
2017-12-30T12:29:07.623Z,41.1
2017-12-30T12:30:08.675Z,41.2
2017-12-30T12:31:10.017Z,41.1
2017-12-30T12:32:11.063Z,41.1
2017-12-30T12:33:12.968Z,41.1
2017-12-30T12:34:14.564Z,41.2
2017-12-30T12:35:15.631Z,41.2
2017-12-30T12:36:16.693Z,41.2
2017-12-30T12:37:18.036Z,41.4
2017-12-30T12:38:19.659Z,41.1
2017-12-30T12:39:21.002Z,41.3
2017-12-30T12:40:22.620Z,41.1
2017-12-30T12:41:23.964Z,41.2
2017-12-30T12:42:25.286Z,41.5
2017-12-30T12:43:27.188Z,41.4
2017-12-30T12:44:28.506Z,41.3
2017-12-30T12:45:29.848Z,41.3
2017-12-30T12:46:31.746Z,41.3
2017-12-30T12:47:33.645Z,41.1
2017-12-30T12:48:35.267Z,41.1
2017-12-30T12:49:36.609Z,41.1
2017-12-30T12:50:37.961Z,41.1
2017-12-30T12:51:39.870Z,41.1
2017-12-30T12:52:41.764Z,41.3
2017-12-30T12:53:43.660Z,41.5
2017-12-30T12:54:45.561Z,41.4
2017-12-30T12:55:47.180Z,41.5
2017-12-30T12:56:48.542Z,41.4
2017-12-30T12:57:50.423Z,41.4
2017-12-30T12:58:52.020Z,41.5
2017-12-30T12:59:53.649Z,41.4
2017-12-30T13:00:55.549Z,41.9
2017-12-30T13:01:56.868Z,41.9
2017-12-30T13:02:57.916Z,41.2
2017-12-30T13:03:59.600Z,41.2
2017-12-30T13:05:01.517Z,41.2
2017-12-30T13:06:03.466Z,41.1
2017-12-30T13:07:04.530Z,41.3
2017-12-30T13:08:06.159Z,41.2
2017-12-30T13:09:08.054Z,41.2
2017-12-30T13:10:09.954Z,41.4
2017-12-30T13:11:11.851Z,41.5
2017-12-30T13:12:13.469Z,41.1
2017-12-30T13:13:15.089Z,41.1
2017-12-30T13:14:16.753Z,41.3
2017-12-30T13:15:18.389Z,41.3
2017-12-30T13:16:20.286Z,41.2
2017-12-30T13:17:21.911Z,41.6
2017-12-30T13:18:23.529Z,41.4
2017-12-30T13:19:25.535Z,41.6
2017-12-30T13:20:27.116Z,41.4
2017-12-30T13:21:28.483Z,41.6
2017-12-30T13:22:30.105Z,41.4
2017-12-30T13:23:31.150Z,41.6
2017-12-30T13:24:32.495Z,41.1
2017-12-30T13:25:33.837Z,41.5
2017-12-30T13:26:35.453Z,41.6
2017-12-30T13:27:36.796Z,41.1
2017-12-30T13:28:37.842Z,41.3
2017-12-30T13:29:39.462Z,41.4
2017-12-30T13:30:41.086Z,41.3
2017-12-30T13:31:42.687Z,41.5
2017-12-30T13:32:44.588Z,41.1
2017-12-30T13:33:46.258Z,41.5
2017-12-30T13:34:47.631Z,41.4
2017-12-30T13:35:49.248Z,41.3
2017-12-30T13:36:50.869Z,41.5
2017-12-30T13:37:52.466Z,41.4
2017-12-30T13:38:54.062Z,41.5
2017-12-30T13:39:55.956Z,41.4
2017-12-30T13:40:57.611Z,41.4
2017-12-30T13:41:59.515Z,41.5
2017-12-30T13:43:01.139Z,41.4
2017-12-30T13:44:02.483Z,41.6
2017-12-30T13:45:03.520Z,41.5
2017-12-30T13:46:04.844Z,41.3